createdAt,value
2018-05-31T00:00:03.602Z,0.00
2018-05-31T00:01:03.916Z,0.00
2018-05-31T00:02:03.556Z,0.00
2018-05-31T00:03:03.600Z,0.00
2018-05-31T00:04:03.536Z,0.00
2018-05-31T00:06:03.512Z,0.00
2018-05-31T00:07:03.875Z,0.00
2018-05-31T00:08:03.484Z,0.00
2018-05-31T00:09:03.474Z,0.00
2018-05-31T00:10:03.460Z,0.00
2018-05-31T00:11:03.453Z,0.00
2018-05-31T00:12:03.498Z,0.00
2018-05-31T00:13:03.928Z,0.00
2018-05-31T00:14:03.416Z,0.00
2018-05-31T00:15:03.402Z,0.00
2018-05-31T00:16:03.390Z,0.00
2018-05-31T00:17:03.393Z,0.00
2018-05-31T00:18:03.376Z,0.00
2018-05-31T00:19:03.722Z,0.00
2018-05-31T00:20:03.450Z,0.00
2018-05-31T00:21:03.395Z,0.00
2018-05-31T00:22:03.326Z,0.00
2018-05-31T00:23:03.320Z,0.00
2018-05-31T00:24:03.306Z,0.00
2018-05-31T00:25:03.645Z,0.00
2018-05-31T00:26:03.286Z,0.00
2018-05-31T00:27:03.268Z,0.00
2018-05-31T00:28:03.251Z,0.00
2018-05-31T00:29:03.250Z,0.00
2018-05-31T00:30:04.317Z,0.00
2018-05-31T00:31:07.153Z,0.00
2018-05-31T00:32:06.020Z,0.00
2018-05-31T00:33:03.195Z,0.00
2018-05-31T00:34:03.263Z,0.00
2018-05-31T00:35:03.175Z,0.00
2018-05-31T00:36:03.173Z,0.00
2018-05-31T00:37:03.204Z,0.00
2018-05-31T00:38:03.440Z,0.00
2018-05-31T00:39:03.236Z,0.00
2018-05-31T00:40:03.221Z,0.00
2018-05-31T00:41:03.216Z,0.00
2018-05-31T00:42:03.200Z,0.00
2018-05-31T00:43:03.132Z,0.00
2018-05-31T00:44:03.065Z,0.00
2018-05-31T00:45:03.353Z,0.00
2018-05-31T00:46:03.042Z,0.00
2018-05-31T00:47:03.033Z,0.00
2018-05-31T00:48:03.021Z,0.00
2018-05-31T00:49:03.061Z,0.00
2018-05-31T00:50:03.083Z,0.00
2018-05-31T00:51:02.996Z,0.00
2018-05-31T00:52:03.272Z,0.00
2018-05-31T00:53:02.968Z,0.00
2018-05-31T00:54:02.949Z,0.00
2018-05-31T00:55:03.000Z,0.00
2018-05-31T00:56:02.924Z,0.00
2018-05-31T00:57:02.913Z,0.00
2018-05-31T00:58:02.901Z,0.00
2018-05-31T00:59:03.204Z,0.00
2018-05-31T01:00:02.877Z,0.00
2018-05-31T01:01:02.915Z,0.00
2018-05-31T01:02:02.865Z,0.00
2018-05-31T01:03:02.841Z,0.00
2018-05-31T01:04:02.834Z,0.00
2018-05-31T01:05:02.826Z,0.00
2018-05-31T01:06:03.113Z,0.00
2018-05-31T01:07:02.852Z,0.00
2018-05-31T01:08:02.802Z,0.00
2018-05-31T01:09:02.796Z,0.00
2018-05-31T01:10:02.765Z,0.00
2018-05-31T01:12:02.740Z,0.00
2018-05-31T01:13:03.086Z,0.00
2018-05-31T01:14:02.713Z,0.00
2018-05-31T01:15:02.714Z,0.00
2018-05-31T01:16:02.690Z,0.00
2018-05-31T01:17:02.749Z,0.00
2018-05-31T01:18:02.724Z,0.00
2018-05-31T01:19:02.711Z,0.00
2018-05-31T01:20:02.950Z,0.00
2018-05-31T01:21:02.639Z,0.00
2018-05-31T01:22:02.618Z,0.00
2018-05-31T01:23:02.606Z,0.00
2018-05-31T01:24:02.596Z,0.00
2018-05-31T01:25:02.645Z,0.00
2018-05-31T01:26:02.874Z,0.00
2018-05-31T01:27:02.563Z,0.00
2018-05-31T01:28:02.549Z,0.00
2018-05-31T01:29:02.534Z,0.00
2018-05-31T01:30:02.588Z,0.00
2018-05-31T01:31:02.559Z,0.00
2018-05-31T01:32:02.939Z,0.00
2018-05-31T01:33:02.555Z,0.00
2018-05-31T01:34:02.479Z,0.00
2018-05-31T01:35:02.468Z,0.00
2018-05-31T01:36:02.458Z,0.00
2018-05-31T01:37:02.513Z,0.00
2018-05-31T01:39:02.470Z,0.00
2018-05-31T01:40:02.407Z,0.00
2018-05-31T01:41:02.397Z,0.00
2018-05-31T01:42:02.380Z,0.00
2018-05-31T01:43:02.419Z,0.00
2018-05-31T01:44:02.656Z,0.00
2018-05-31T01:45:02.347Z,0.00
2018-05-31T01:46:02.335Z,0.00
2018-05-31T01:47:02.319Z,0.00
2018-05-31T01:48:02.304Z,0.00
2018-05-31T01:49:02.623Z,0.00
2018-05-31T01:50:02.584Z,0.00
2018-05-31T01:51:02.296Z,0.00
2018-05-31T01:52:02.266Z,0.00
2018-05-31T01:53:02.251Z,0.00
2018-05-31T01:54:02.235Z,0.00
2018-05-31T01:55:02.276Z,0.00
2018-05-31T01:56:02.511Z,0.00
2018-05-31T01:57:02.213Z,0.00
2018-05-31T01:58:02.182Z,0.00
2018-05-31T01:59:02.174Z,0.00
2018-05-31T02:00:02.173Z,0.00
2018-05-31T02:01:02.201Z,0.00
2018-05-31T02:02:02.441Z,0.00
2018-05-31T02:03:02.125Z,0.00
2018-05-31T02:04:02.113Z,0.00
2018-05-31T02:05:02.099Z,0.00
2018-05-31T02:06:02.091Z,0.00
2018-05-31T02:07:02.126Z,0.00
2018-05-31T02:08:02.206Z,0.00
2018-05-31T02:09:02.465Z,0.00
2018-05-31T02:10:02.424Z,0.00
2018-05-31T02:11:02.147Z,0.00
2018-05-31T02:12:02.128Z,0.00
2018-05-31T02:13:02.195Z,0.00
2018-05-31T02:14:01.987Z,0.00
2018-05-31T02:16:02.268Z,0.00
2018-05-31T02:17:01.948Z,4.00
2018-05-31T02:18:03.169Z,4.00
2018-05-31T02:19:02.001Z,4.00
2018-05-31T02:20:01.925Z,0.00
2018-05-31T02:21:01.902Z,0.00
2018-05-31T02:22:01.897Z,4.00
2018-05-31T02:23:02.183Z,4.00
2018-05-31T02:24:01.866Z,4.00
2018-05-31T02:25:01.915Z,4.00
2018-05-31T02:26:01.846Z,8.00
2018-05-31T02:27:01.832Z,4.00
2018-05-31T02:28:01.811Z,8.00
2018-05-31T02:29:01.800Z,4.00
2018-05-31T02:30:02.123Z,8.00
2018-05-31T02:31:01.823Z,8.00
2018-05-31T02:32:01.858Z,8.00
2018-05-31T02:33:01.787Z,12.00
2018-05-31T02:34:01.737Z,12.00
2018-05-31T02:35:01.724Z,16.00
2018-05-31T02:36:01.710Z,16.00
2018-05-31T02:37:02.050Z,16.00
2018-05-31T02:38:01.775Z,20.00
2018-05-31T02:39:01.751Z,24.00
2018-05-31T02:40:01.739Z,24.00
2018-05-31T02:41:01.738Z,28.00
2018-05-31T02:43:01.977Z,36.00
2018-05-31T02:44:01.619Z,40.00
2018-05-31T02:45:01.667Z,44.00
2018-05-31T02:47:01.578Z,52.00
2018-05-31T02:48:01.566Z,60.00
2018-05-31T02:49:01.754Z,64.00
2018-05-31T02:50:01.845Z,68.00
2018-05-31T02:51:01.530Z,76.00
2018-05-31T02:52:01.519Z,88.00
2018-05-31T02:53:01.528Z,92.00
2018-05-31T02:54:01.491Z,104.00
2018-05-31T02:55:01.836Z,112.00
2018-05-31T02:56:01.772Z,120.00
2018-05-31T02:57:01.449Z,132.00
2018-05-31T02:58:01.436Z,144.00
2018-05-31T02:59:01.422Z,156.00
2018-05-31T03:00:01.425Z,164.00
2018-05-31T03:01:01.558Z,180.00
2018-05-31T03:02:01.687Z,188.00
2018-05-31T03:03:01.376Z,204.00
2018-05-31T03:04:01.361Z,220.00
2018-05-31T03:05:01.354Z,232.00
2018-05-31T03:06:01.439Z,248.00
2018-05-31T03:07:01.546Z,264.00
2018-05-31T03:08:01.717Z,284.00
2018-05-31T03:09:01.409Z,296.00
2018-05-31T03:10:01.393Z,316.00
2018-05-31T03:11:01.390Z,336.00
2018-05-31T03:12:01.373Z,352.00
2018-05-31T03:13:01.432Z,372.00
2018-05-31T03:15:01.642Z,412.00
2018-05-31T03:16:01.318Z,432.00
2018-05-31T03:17:01.309Z,456.00
2018-05-31T03:18:01.191Z,476.00
2018-05-31T03:19:01.224Z,500.00
2018-05-31T03:20:01.165Z,520.00
2018-05-31T03:21:01.453Z,540.00
2018-05-31T03:22:01.138Z,564.00
2018-05-31T03:23:01.127Z,584.00
2018-05-31T03:24:01.305Z,608.00
2018-05-31T03:25:01.159Z,632.00
2018-05-31T03:26:01.094Z,652.00
2018-05-31T03:27:01.381Z,676.00
2018-05-31T03:28:01.058Z,700.00
2018-05-31T03:29:01.051Z,728.00
2018-05-31T03:30:01.117Z,752.00
2018-05-31T03:31:01.156Z,780.00
2018-05-31T03:32:01.021Z,804.00
2018-05-31T03:33:01.301Z,828.00
2018-05-31T03:34:00.991Z,852.00
2018-05-31T03:35:00.971Z,876.00
2018-05-31T03:36:00.971Z,900.00
2018-05-31T03:37:00.998Z,924.00
2018-05-31T03:38:00.936Z,948.00
2018-05-31T03:39:00.964Z,972.00
2018-05-31T03:40:01.215Z,992.00
2018-05-31T03:41:00.896Z,1020.00
2018-05-31T03:42:00.892Z,1048.00
2018-05-31T03:43:00.925Z,1076.00
2018-05-31T03:44:00.865Z,1104.00
2018-05-31T03:45:00.848Z,1128.00
2018-05-31T03:46:00.834Z,1152.00
2018-05-31T03:47:01.135Z,1188.00
2018-05-31T03:48:00.808Z,1212.00
2018-05-31T03:49:00.853Z,1248.00
2018-05-31T03:51:00.772Z,1320.00
2018-05-31T03:52:00.763Z,1356.00
2018-05-31T03:53:00.753Z,1392.00
2018-05-31T03:54:01.216Z,1424.00
2018-05-31T03:55:00.781Z,1460.00
2018-05-31T03:56:00.835Z,1492.00
2018-05-31T03:58:01.006Z,1552.00
2018-05-31T04:00:01.038Z,1612.00
2018-05-31T04:01:00.706Z,1648.00
2018-05-31T04:02:00.637Z,1676.00
2018-05-31T04:03:00.627Z,1708.00
2018-05-31T04:05:00.604Z,1760.00
2018-05-31T04:06:00.695Z,1788.00
2018-05-31T04:07:00.926Z,1824.00
2018-05-31T04:08:00.569Z,1852.00
2018-05-31T04:09:00.552Z,1876.00
2018-05-31T04:10:00.542Z,1908.00
2018-05-31T04:11:00.631Z,1936.00
2018-05-31T04:12:00.516Z,1968.00
2018-05-31T04:13:00.602Z,2000.00
2018-05-31T04:14:00.796Z,2024.00
2018-05-31T04:15:00.475Z,2052.00
2018-05-31T04:16:00.463Z,2076.00
2018-05-31T04:17:00.447Z,2096.00
2018-05-31T04:18:00.496Z,2120.00
2018-05-31T04:19:00.471Z,2140.00
2018-05-31T04:20:00.535Z,2168.00
2018-05-31T04:21:00.696Z,2188.00
2018-05-31T04:22:00.384Z,2208.00
2018-05-31T04:23:00.379Z,2228.00
2018-05-31T04:24:00.370Z,2248.00
2018-05-31T04:25:00.404Z,2268.00
2018-05-31T04:26:00.344Z,2296.00
2018-05-31T04:27:00.625Z,2312.00
2018-05-31T04:28:00.322Z,2332.00
2018-05-31T04:29:00.301Z,2348.00
2018-05-31T04:30:00.299Z,2364.00
2018-05-31T04:31:00.344Z,2392.00
2018-05-31T04:32:00.290Z,2416.00
2018-05-31T04:33:00.563Z,2436.00
2018-05-31T04:35:00.235Z,2488.00
2018-05-31T04:36:00.234Z,2508.00
2018-05-31T04:37:00.270Z,2524.00
2018-05-31T04:38:00.360Z,2552.00
2018-05-31T04:39:00.494Z,2572.00
2018-05-31T04:40:00.168Z,2592.00
2018-05-31T04:41:00.156Z,2620.00
2018-05-31T04:42:00.148Z,2648.00
2018-05-31T04:43:00.225Z,2672.00
2018-05-31T04:44:00.129Z,2696.00
2018-05-31T04:45:00.417Z,2724.00
2018-05-31T04:46:00.096Z,2752.00
2018-05-31T04:47:00.089Z,2780.00
2018-05-31T04:48:00.074Z,2808.00
2018-05-31T04:49:00.112Z,2828.00
2018-05-31T04:50:00.048Z,2852.00
2018-05-31T04:51:00.342Z,2872.00
2018-05-31T04:52:00.032Z,2896.00
2018-05-31T04:53:00.022Z,2912.00
2018-05-31T04:54:00.018Z,2928.00
2018-05-31T04:55:00.092Z,2944.00
2018-05-31T04:55:59.991Z,2960.00
2018-05-31T04:57:00.332Z,2980.00
2018-05-31T04:58:00.040Z,3004.00
2018-05-31T04:58:59.965Z,3032.00
2018-05-31T04:59:59.938Z,3060.00
2018-05-31T05:00:59.980Z,3080.00
2018-05-31T05:02:00.003Z,3096.00
2018-05-31T05:03:00.381Z,3112.00
2018-05-31T05:03:59.888Z,3128.00
2018-05-31T05:04:59.972Z,3140.00
2018-05-31T05:05:59.954Z,3148.00
2018-05-31T05:06:59.907Z,3164.00
2018-05-31T05:07:59.844Z,3184.00
2018-05-31T05:09:00.187Z,3196.00
2018-05-31T05:09:59.901Z,3220.00
2018-05-31T05:10:59.808Z,3232.00
2018-05-31T05:11:59.798Z,3240.00
2018-05-31T05:12:59.849Z,3256.00
2018-05-31T05:13:59.808Z,3276.00
2018-05-31T05:14:59.764Z,3288.00
2018-05-31T05:16:00.060Z,3308.00
2018-05-31T05:16:59.772Z,3332.00
2018-05-31T05:17:59.743Z,3360.00
2018-05-31T05:18:59.786Z,3380.00
2018-05-31T05:19:59.767Z,3412.00
2018-05-31T05:20:59.699Z,3424.00
2018-05-31T05:21:59.693Z,3444.00
2018-05-31T05:22:59.975Z,3464.00
2018-05-31T05:23:59.700Z,3476.00
2018-05-31T05:24:59.711Z,3496.00
2018-05-31T05:25:59.652Z,3524.00
2018-05-31T05:26:59.636Z,3536.00
2018-05-31T05:27:59.797Z,3544.00
2018-05-31T05:28:59.630Z,3564.00
2018-05-31T05:29:59.899Z,3572.00
2018-05-31T05:30:59.639Z,3592.00
2018-05-31T05:32:00.026Z,3628.00
2018-05-31T05:32:59.591Z,3632.00
2018-05-31T05:33:59.557Z,3636.00
2018-05-31T05:34:59.551Z,3644.00
2018-05-31T05:35:59.536Z,3652.00
2018-05-31T05:36:59.913Z,3664.00
2018-05-31T05:37:59.515Z,3688.00
2018-05-31T05:38:59.506Z,3704.00
2018-05-31T05:39:59.505Z,3712.00
2018-05-31T05:40:59.570Z,3716.00
2018-05-31T05:41:59.871Z,3716.00
2018-05-31T05:42:59.624Z,3724.00
2018-05-31T05:43:59.762Z,3724.00
2018-05-31T05:44:59.444Z,3736.00
2018-05-31T05:45:59.430Z,3748.00
2018-05-31T05:46:59.423Z,3768.00
2018-05-31T05:47:59.411Z,3792.00
2018-05-31T05:48:59.487Z,3800.00
2018-05-31T05:49:59.392Z,3820.00
2018-05-31T05:50:59.678Z,3848.00
2018-05-31T05:51:59.373Z,3916.00
2018-05-31T05:52:59.361Z,3900.00
2018-05-31T05:53:59.395Z,3912.00
2018-05-31T05:54:59.388Z,3928.00
2018-05-31T05:55:59.327Z,3928.00
2018-05-31T05:56:59.565Z,3928.00
2018-05-31T05:57:59.609Z,3960.00
2018-05-31T05:58:59.298Z,3968.00
2018-05-31T05:59:59.303Z,3992.00
2018-05-31T06:00:59.340Z,4048.00
2018-05-31T06:01:59.322Z,4024.00
2018-05-31T06:02:59.259Z,4052.00
2018-05-31T06:03:59.557Z,4076.00
2018-05-31T06:04:59.245Z,4084.00
2018-05-31T06:05:59.241Z,4108.00
2018-05-31T06:06:59.350Z,4124.00
2018-05-31T06:07:59.209Z,4144.00
2018-05-31T06:08:59.203Z,4172.00
2018-05-31T06:09:59.210Z,4152.00
2018-05-31T06:10:59.475Z,4152.00
2018-05-31T06:11:59.173Z,4152.00
2018-05-31T06:12:59.212Z,4164.00
2018-05-31T06:13:59.149Z,4168.00
2018-05-31T06:14:59.138Z,4168.00
2018-05-31T06:15:59.130Z,4188.00
2018-05-31T06:16:59.421Z,4204.00
2018-05-31T06:17:59.109Z,4192.00
2018-05-31T06:18:59.148Z,4208.00
2018-05-31T06:19:59.099Z,4232.00
2018-05-31T06:20:59.088Z,4240.00
2018-05-31T06:21:59.139Z,4244.00
2018-05-31T06:22:59.359Z,4256.00
2018-05-31T06:23:59.050Z,4256.00
2018-05-31T06:24:59.097Z,4272.00
2018-05-31T06:25:59.038Z,4280.00
2018-05-31T06:26:59.028Z,4292.00
2018-05-31T06:27:59.025Z,4328.00
2018-05-31T06:28:59.310Z,4320.00
2018-05-31T06:29:59.057Z,4340.00
2018-05-31T06:30:59.490Z,4364.00
2018-05-31T06:31:58.973Z,4372.00
2018-05-31T06:32:59.105Z,4408.00
2018-05-31T06:33:59.060Z,4412.00
2018-05-31T06:34:58.957Z,4428.00
2018-05-31T06:35:59.295Z,4440.00
2018-05-31T06:36:58.974Z,4468.00
2018-05-31T06:37:59.038Z,4500.00
2018-05-31T06:38:59.023Z,4532.00
2018-05-31T06:39:59.044Z,4556.00
2018-05-31T06:40:59.000Z,4576.00
2018-05-31T06:41:59.292Z,4624.00
2018-05-31T06:42:59.043Z,4656.00
2018-05-31T06:43:58.865Z,4688.00
2018-05-31T06:44:58.882Z,4728.00
2018-05-31T06:45:58.855Z,4728.00
2018-05-31T06:46:58.839Z,4776.00
2018-05-31T06:47:59.123Z,4840.00
2018-05-31T06:48:58.868Z,4868.00
2018-05-31T06:49:58.804Z,4896.00
2018-05-31T06:50:58.793Z,4912.00
2018-05-31T06:53:59.089Z,5004.00
2018-05-31T06:54:58.823Z,4988.00
2018-05-31T06:56:58.850Z,4992.00
2018-05-31T06:57:59.142Z,5020.00
2018-05-31T06:58:58.730Z,5048.00
2018-05-31T06:59:58.733Z,5064.00
2018-05-31T07:00:59.057Z,5104.00
2018-05-31T07:01:58.700Z,5108.00
2018-05-31T07:02:58.761Z,5108.00
2018-05-31T07:04:58.671Z,5164.00
2018-05-31T07:05:58.663Z,5200.00
2018-05-31T07:06:58.765Z,5228.00
2018-05-31T07:07:58.951Z,5240.00
2018-05-31T07:08:58.638Z,5228.00
2018-05-31T07:09:58.624Z,5264.00
2018-05-31T07:10:58.624Z,5304.00
2018-05-31T07:11:58.642Z,5332.00
2018-05-31T07:12:58.650Z,5384.00
2018-05-31T07:13:58.594Z,5432.00
2018-05-31T07:14:58.881Z,5428.00
2018-05-31T07:15:58.624Z,5464.00
2018-05-31T07:16:59.073Z,5484.00
2018-05-31T07:17:58.576Z,5508.00
2018-05-31T07:18:58.603Z,5552.00
2018-05-31T07:19:58.566Z,5572.00
2018-05-31T07:20:58.834Z,5544.00
2018-05-31T07:21:58.532Z,5580.00
2018-05-31T07:22:58.520Z,5636.00
2018-05-31T07:23:58.512Z,5708.00
2018-05-31T07:24:58.554Z,5884.00
2018-05-31T07:25:58.491Z,6252.00
2018-05-31T07:26:58.801Z,6596.00
2018-05-31T07:27:58.472Z,6756.00
2018-05-31T07:28:58.632Z,6932.00
2018-05-31T07:29:58.462Z,6960.00
2018-05-31T07:30:58.653Z,6996.00
2018-05-31T07:31:58.445Z,6976.00
2018-05-31T07:32:58.446Z,6996.00
2018-05-31T07:33:58.730Z,7004.00
2018-05-31T07:34:58.420Z,7092.00
2018-05-31T07:35:58.516Z,7068.00
2018-05-31T07:36:58.461Z,7060.00
2018-05-31T07:37:58.404Z,7048.00
2018-05-31T07:38:58.391Z,7064.00
2018-05-31T07:39:58.689Z,7088.00
2018-05-31T07:40:58.389Z,7108.00
2018-05-31T07:41:58.374Z,7100.00
2018-05-31T07:42:58.421Z,7120.00
2018-05-31T07:43:58.364Z,7156.00
2018-05-31T07:44:58.367Z,7264.00
2018-05-31T07:45:58.655Z,7304.00
2018-05-31T07:46:58.348Z,7436.00
2018-05-31T07:47:58.339Z,7420.00
2018-05-31T07:48:58.392Z,7416.00
2018-05-31T07:49:58.338Z,7424.00
2018-05-31T07:50:58.323Z,7500.00
2018-05-31T07:51:58.617Z,7528.00
2018-05-31T07:52:58.314Z,7544.00
2018-05-31T07:53:58.308Z,7596.00
2018-05-31T07:55:58.506Z,7680.00
2018-05-31T07:56:58.298Z,7712.00
2018-05-31T07:57:58.805Z,7752.00
2018-05-31T07:58:58.290Z,7908.00
2018-05-31T07:59:58.288Z,7944.00
2018-05-31T08:00:58.285Z,7964.00
2018-05-31T08:01:58.452Z,8028.00
2018-05-31T08:02:58.332Z,8056.00
2018-05-31T08:03:58.592Z,8112.00
2018-05-31T08:04:58.329Z,8180.00
2018-05-31T08:05:58.315Z,8248.00
2018-05-31T08:06:58.464Z,8288.00
2018-05-31T08:07:58.418Z,8244.00
2018-05-31T08:08:58.260Z,8468.00
2018-05-31T08:10:58.554Z,8596.00
2018-05-31T08:11:58.256Z,8704.00
2018-05-31T08:12:58.262Z,8656.00
2018-05-31T08:13:58.305Z,8716.00
2018-05-31T08:14:58.244Z,8844.00
2018-05-31T08:15:58.243Z,8924.00
2018-05-31T08:16:58.543Z,8752.00
2018-05-31T08:17:58.252Z,8908.00
2018-05-31T08:18:58.239Z,9300.00
2018-05-31T08:19:58.287Z,9208.00
2018-05-31T08:20:58.286Z,9332.00
2018-05-31T08:21:58.236Z,9440.00
2018-05-31T08:22:58.920Z,9260.00
2018-05-31T08:23:58.782Z,9176.00
2018-05-31T08:24:58.453Z,9220.00
2018-05-31T08:26:58.301Z,9304.00
2018-05-31T08:27:58.279Z,9352.00
2018-05-31T08:28:58.227Z,9416.00
2018-05-31T08:29:58.231Z,9432.00
2018-05-31T08:30:58.538Z,9464.00
2018-05-31T08:31:58.243Z,9388.00
2018-05-31T08:32:58.293Z,9392.00
2018-05-31T08:33:58.398Z,9376.00
2018-05-31T08:34:58.525Z,9380.00
2018-05-31T08:35:58.436Z,9488.00
2018-05-31T08:36:58.543Z,9616.00
2018-05-31T08:37:58.650Z,9596.00
2018-05-31T08:38:58.588Z,9332.00
2018-05-31T08:39:58.574Z,9396.00
2018-05-31T08:40:58.511Z,9576.00
2018-05-31T08:41:58.238Z,9708.00
2018-05-31T08:42:58.233Z,9740.00
2018-05-31T08:43:58.535Z,9716.00
2018-05-31T08:44:58.282Z,9680.00
2018-05-31T08:45:58.241Z,9660.00
2018-05-31T08:46:58.245Z,9748.00
2018-05-31T08:47:58.254Z,9764.00
2018-05-31T08:48:58.366Z,9700.00
2018-05-31T08:49:58.715Z,9680.00
2018-05-31T08:50:58.452Z,9712.00
2018-05-31T08:51:58.533Z,9712.00
2018-05-31T08:52:58.243Z,9748.00
2018-05-31T08:53:58.257Z,9828.00
2018-05-31T08:54:58.451Z,9800.00
2018-05-31T08:55:58.418Z,9796.00
2018-05-31T08:57:00.704Z,9844.00
2018-05-31T08:57:58.369Z,9968.00
2018-05-31T08:58:58.355Z,10056.00
2018-05-31T08:59:58.438Z,10080.00
2018-05-31T09:00:58.420Z,10256.00
2018-05-31T09:01:58.354Z,10332.00
2018-05-31T09:02:58.459Z,10360.00
2018-05-31T09:03:58.572Z,10456.00
2018-05-31T09:04:58.264Z,10528.00
2018-05-31T09:05:58.307Z,10604.00
2018-05-31T09:06:58.269Z,10512.00
2018-05-31T09:07:58.615Z,10516.00
2018-05-31T09:08:58.328Z,10544.00
2018-05-31T09:09:59.000Z,10540.00
2018-05-31T09:10:58.628Z,10744.00
2018-05-31T09:11:58.287Z,10828.00
2018-05-31T09:12:58.465Z,10972.00
2018-05-31T09:13:59.241Z,11084.00
2018-05-31T09:14:58.395Z,11116.00
2018-05-31T09:16:58.300Z,11324.00
2018-05-31T09:17:58.626Z,11436.00
2018-05-31T09:18:58.303Z,11504.00
2018-05-31T09:19:58.304Z,11556.00
2018-05-31T09:20:58.361Z,11564.00
2018-05-31T09:21:58.324Z,11716.00
2018-05-31T09:22:58.313Z,11848.00
2018-05-31T09:23:58.315Z,11908.00
2018-05-31T09:24:58.620Z,12100.00
2018-05-31T09:25:58.327Z,12164.00
2018-05-31T09:26:58.375Z,12180.00
2018-05-31T09:27:58.329Z,12176.00
2018-05-31T09:28:58.543Z,12300.00
2018-05-31T09:29:58.340Z,12568.00
2018-05-31T09:30:58.640Z,12692.00
2018-05-31T09:31:58.347Z,12636.00
2018-05-31T09:32:58.411Z,12612.00
2018-05-31T09:33:58.351Z,12672.00
2018-05-31T09:34:58.361Z,12708.00
2018-05-31T09:35:58.359Z,12800.00
2018-05-31T09:36:58.660Z,12940.00
2018-05-31T09:37:58.374Z,12956.00
2018-05-31T09:38:58.420Z,12852.00
2018-05-31T09:39:58.636Z,12976.00
2018-05-31T09:40:58.575Z,13256.00
2018-05-31T09:41:58.589Z,13360.00
2018-05-31T09:42:58.685Z,13572.00
2018-05-31T09:43:58.393Z,13476.00
2018-05-31T09:44:58.453Z,13596.00
2018-05-31T09:45:58.398Z,13604.00
2018-05-31T09:46:58.405Z,13712.00
2018-05-31T09:47:58.408Z,13820.00
2018-05-31T09:48:58.771Z,13944.00
2018-05-31T09:49:58.425Z,14084.00
2018-05-31T09:50:58.593Z,14224.00
2018-05-31T09:52:58.432Z,14324.00
2018-05-31T09:53:58.435Z,14692.00
2018-05-31T09:54:58.740Z,14868.00
2018-05-31T09:55:58.466Z,15088.00
2018-05-31T09:56:58.500Z,15076.00
2018-05-31T09:57:58.460Z,15124.00
2018-05-31T09:58:58.476Z,15328.00
2018-05-31T09:59:58.612Z,15516.00
2018-05-31T10:00:58.785Z,15944.00
2018-05-31T10:01:58.472Z,16140.00
2018-05-31T10:02:58.534Z,16448.00
2018-05-31T10:03:58.981Z,16744.00
2018-05-31T10:04:58.494Z,17236.00
2018-05-31T10:05:58.494Z,17116.00
2018-05-31T10:06:59.123Z,17632.00
2018-05-31T10:07:58.563Z,17824.00
2018-05-31T10:08:58.617Z,18144.00
2018-05-31T10:09:58.531Z,18368.00
2018-05-31T10:10:58.535Z,18496.00
2018-05-31T10:11:58.523Z,18720.00
2018-05-31T10:12:58.828Z,19008.00
2018-05-31T10:13:58.543Z,19296.00
2018-05-31T10:14:58.593Z,19424.00
2018-05-31T10:15:58.549Z,20032.00
2018-05-31T10:16:58.551Z,20672.00
2018-05-31T10:17:58.564Z,21664.00
2018-05-31T10:18:58.950Z,22976.00
2018-05-31T10:19:58.569Z,25824.00
2018-05-31T10:20:58.701Z,31744.00
2018-05-31T10:21:58.577Z,41888.00
2018-05-31T10:22:58.590Z,54656.00
2018-05-31T10:23:58.612Z,65536.00
2018-05-31T10:24:58.668Z,68800.00
2018-05-31T10:25:58.907Z,74528.00
2018-05-31T10:26:58.663Z,75264.00
2018-05-31T10:28:01.686Z,76992.00
2018-05-31T10:28:58.663Z,74720.00
2018-05-31T10:29:58.632Z,72128.00
2018-05-31T10:30:58.631Z,74624.00
2018-05-31T10:31:58.642Z,74624.00
2018-05-31T10:32:59.052Z,72416.00
2018-05-31T10:33:58.653Z,73376.00
2018-05-31T10:34:58.652Z,75104.00
2018-05-31T10:35:58.664Z,74880.00
2018-05-31T10:36:58.668Z,78816.00
2018-05-31T10:37:58.677Z,77120.00
2018-05-31T10:38:59.032Z,78176.00
2018-05-31T10:39:58.691Z,78848.00
2018-05-31T10:40:58.696Z,80672.00
2018-05-31T10:41:58.710Z,82368.00
2018-05-31T10:42:58.706Z,81696.00
2018-05-31T10:43:58.731Z,78912.00
2018-05-31T10:44:58.772Z,77216.00
2018-05-31T10:45:59.022Z,80768.00
2018-05-31T10:46:58.728Z,82240.00
2018-05-31T10:47:58.736Z,72576.00
2018-05-31T10:48:58.740Z,60064.00
2018-05-31T10:49:58.749Z,81696.00
2018-05-31T10:50:58.821Z,81600.00
2018-05-31T10:51:59.126Z,78496.00
2018-05-31T10:52:58.832Z,22720.00
2018-05-31T10:53:58.778Z,28608.00
2018-05-31T10:54:58.793Z,77024.00
2018-05-31T10:55:58.795Z,24288.00
2018-05-31T10:56:58.861Z,25344.00
2018-05-31T10:57:59.117Z,80448.00
2018-05-31T10:58:58.849Z,76192.00
2018-05-31T10:59:58.867Z,19552.00
2018-05-31T11:00:58.828Z,18176.00
2018-05-31T11:01:58.835Z,61984.00
2018-05-31T11:02:58.876Z,74368.00
2018-05-31T11:03:59.140Z,71904.00
2018-05-31T11:04:58.836Z,38400.00
2018-05-31T11:05:58.943Z,63552.00
2018-05-31T11:06:58.855Z,18752.00
2018-05-31T11:07:58.855Z,15200.00
2018-05-31T11:08:58.908Z,50720.00
2018-05-31T11:09:59.169Z,58176.00
2018-05-31T11:10:58.863Z,49024.00
2018-05-31T11:11:58.879Z,47200.00
2018-05-31T11:12:58.881Z,45536.00
2018-05-31T11:13:58.888Z,56384.00
2018-05-31T11:14:58.996Z,28512.00
2018-05-31T11:16:59.193Z,43776.00
2018-05-31T11:17:59.008Z,19008.00
2018-05-31T11:18:59.261Z,18464.00
2018-05-31T11:19:59.111Z,19872.00
2018-05-31T11:20:59.820Z,78176.00
2018-05-31T11:21:59.196Z,76352.00
2018-05-31T11:22:59.354Z,78176.00
2018-05-31T11:23:59.154Z,26944.00
2018-05-31T11:24:58.921Z,78752.00
2018-05-31T11:25:58.940Z,77696.00
2018-05-31T11:26:58.981Z,77824.00
2018-05-31T11:27:59.409Z,76512.00
2018-05-31T11:28:59.645Z,69088.00
2018-05-31T11:29:59.401Z,71968.00
2018-05-31T11:30:59.782Z,77728.00
2018-05-31T11:31:59.295Z,77696.00
2018-05-31T11:32:59.005Z,80576.00
2018-05-31T11:33:58.958Z,78496.00
2018-05-31T11:34:59.267Z,76928.00
2018-05-31T11:35:58.983Z,73504.00
2018-05-31T11:36:58.971Z,73440.00
2018-05-31T11:37:58.978Z,77792.00
2018-05-31T11:38:59.028Z,78528.00
2018-05-31T11:39:58.989Z,77856.00
2018-05-31T11:40:58.996Z,15676.00
2018-05-31T11:41:59.017Z,19456.00
2018-05-31T11:42:59.002Z,76576.00
2018-05-31T11:43:59.028Z,78944.00
2018-05-31T11:44:59.068Z,81056.00
2018-05-31T11:45:59.320Z,78624.00
2018-05-31T11:46:59.024Z,19424.00
2018-05-31T11:47:59.033Z,18240.00
2018-05-31T11:48:59.047Z,64800.00
2018-05-31T11:50:59.753Z,75008.00
2018-05-31T11:51:59.125Z,76416.00
2018-05-31T11:52:59.369Z,80064.00
2018-05-31T11:53:59.150Z,82432.00
2018-05-31T11:54:59.079Z,82752.00
2018-05-31T11:55:59.102Z,82880.00
2018-05-31T11:56:59.133Z,84704.00
2018-05-31T11:57:59.095Z,81824.00
2018-05-31T11:58:59.393Z,84448.00
2018-05-31T11:59:59.099Z,84640.00
2018-05-31T12:00:59.104Z,86016.00
2018-05-31T12:01:59.111Z,79264.00
2018-05-31T12:02:59.364Z,78432.00
2018-05-31T12:03:59.270Z,81408.00
2018-05-31T12:04:59.450Z,77536.00
2018-05-31T12:05:59.152Z,82048.00
2018-05-31T12:06:59.148Z,19328.00
2018-05-31T12:07:59.178Z,15716.00
2018-05-31T12:08:59.349Z,15220.00
2018-05-31T12:09:59.364Z,15596.00
2018-05-31T12:10:59.523Z,17488.00
2018-05-31T12:11:59.194Z,80032.00
2018-05-31T12:12:59.195Z,78112.00
2018-05-31T12:13:59.201Z,75808.00
2018-05-31T12:14:59.771Z,74816.00
2018-05-31T12:15:59.227Z,76864.00
2018-05-31T12:16:59.509Z,67648.00
2018-05-31T12:17:59.316Z,15580.00
2018-05-31T12:18:59.507Z,14512.00
2018-05-31T12:19:59.230Z,14176.00
2018-05-31T12:20:59.314Z,14708.00
2018-05-31T12:21:59.355Z,74336.00
2018-05-31T12:22:59.302Z,69056.00
2018-05-31T12:23:59.537Z,67456.00
2018-05-31T12:24:59.402Z,83776.00
2018-05-31T12:25:59.293Z,83808.00
2018-05-31T12:26:59.434Z,69184.00
2018-05-31T12:27:59.385Z,20480.00
2018-05-31T12:28:59.482Z,59584.00
2018-05-31T12:29:59.301Z,80000.00
2018-05-31T12:30:59.350Z,81152.00
2018-05-31T12:31:59.840Z,76320.00
2018-05-31T12:32:59.437Z,76448.00
2018-05-31T12:33:59.387Z,22944.00
2018-05-31T12:34:59.390Z,19168.00
2018-05-31T12:35:59.604Z,30464.00
2018-05-31T12:36:59.335Z,84096.00
2018-05-31T12:37:59.389Z,82336.00